sensor_id;sensor_type;location;lat;lon;timestamp;P1;durP1;ratioP1;P2;durP2;ratioP2
11092;SDS011;5600;50.864;6.102;2023-09-12T00:01:48;59.78;;;7.88;;
11092;SDS011;5600;50.864;6.102;2023-09-12T00:04:49;65.38;;;7.65;;
11092;SDS011;5600;50.864;6.102;2023-09-12T00:07:53;81.65;;;8.50;;
11092;SDS011;5600;50.864;6.102;2023-09-12T00:11:13;40.78;;;7.20;;
11092;SDS011;5600;50.864;6.102;2023-09-12T00:14:17;66.53;;;8.18;;
11092;SDS011;5600;50.864;6.102;2023-09-12T00:17:18;75.80;;;8.23;;
11092;SDS011;5600;50.864;6.102;2023-09-12T00:20:19;78.18;;;8.35;;
11092;SDS011;5600;50.864;6.102;2023-09-12T00:23:21;60.83;;;6.32;;
11092;SDS011;5600;50.864;6.102;2023-09-12T00:26:23;118.47;;;9.43;;
11092;SDS011;5600;50.864;6.102;2023-09-12T00:29:24;86.05;;;8.43;;
11092;SDS011;5600;50.864;6.102;2023-09-12T00:32:26;68.68;;;7.47;;
11092;SDS011;5600;50.864;6.102;2023-09-12T00:35:28;80.03;;;8.07;;
11092;SDS011;5600;50.864;6.102;2023-09-12T00:38:29;86.22;;;8.63;;
11092;SDS011;5600;50.864;6.102;2023-09-12T00:41:30;76.07;;;8.13;;
11092;SDS011;5600;50.864;6.102;2023-09-12T00:44:31;72.28;;;7.47;;
11092;SDS011;5600;50.864;6.102;2023-09-12T00:47:32;61.58;;;7.30;;
11092;SDS011;5600;50.864;6.102;2023-09-12T00:50:33;65.43;;;7.85;;
11092;SDS011;5600;50.864;6.102;2023-09-12T00:53:35;60.65;;;7.28;;
11092;SDS011;5600;50.864;6.102;2023-09-12T00:56:36;61.05;;;7.60;;
11092;SDS011;5600;50.864;6.102;2023-09-12T00:59:38;69.25;;;7.40;;
11092;SDS011;5600;50.864;6.102;2023-09-12T01:02:39;46.00;;;6.43;;
11092;SDS011;5600;50.864;6.102;2023-09-12T01:05:44;58.00;;;7.28;;
11092;SDS011;5600;50.864;6.102;2023-09-12T01:08:45;44.90;;;6.80;;
11092;SDS011;5600;50.864;6.102;2023-09-12T01:11:46;42.42;;;6.53;;
11092;SDS011;5600;50.864;6.102;2023-09-12T01:14:48;42.70;;;6.57;;
11092;SDS011;5600;50.864;6.102;2023-09-12T01:17:49;46.38;;;6.15;;
11092;SDS011;5600;50.864;6.102;2023-09-12T01:27:57;51.58;;;7.07;;
11092;SDS011;5600;50.864;6.102;2023-09-12T01:31:01;37.58;;;6.47;;
11092;SDS011;5600;50.864;6.102;2023-09-12T01:34:10;57.40;;;7.30;;
11092;SDS011;5600;50.864;6.102;2023-09-12T01:37:11;53.22;;;7.00;;
11092;SDS011;5600;50.864;6.102;2023-09-12T01:40:12;45.95;;;6.93;;
11092;SDS011;5600;50.864;6.102;2023-09-12T01:43:15;57.97;;;7.70;;
11092;SDS011;5600;50.864;6.102;2023-09-12T01:46:18;103.00;;;9.82;;
11092;SDS011;5600;50.864;6.102;2023-09-12T01:49:21;56.83;;;7.35;;
11092;SDS011;5600;50.864;6.102;2023-09-12T01:52:27;65.93;;;7.90;;
11092;SDS011;5600;50.864;6.102;2023-09-12T01:55:28;58.50;;;8.55;;
11092;SDS011;5600;50.864;6.102;2023-09-12T01:58:30;66.50;;;8.52;;
11092;SDS011;5600;50.864;6.102;2023-09-12T02:01:31;52.92;;;7.88;;
11092;SDS011;5600;50.864;6.102;2023-09-12T02:04:33;57.15;;;7.00;;
11092;SDS011;5600;50.864;6.102;2023-09-12T02:07:35;68.28;;;8.40;;
11092;SDS011;5600;50.864;6.102;2023-09-12T02:10:37;43.83;;;7.20;;
11092;SDS011;5600;50.864;6.102;2023-09-12T02:13:39;51.63;;;7.70;;
11092;SDS011;5600;50.864;6.102;2023-09-12T02:16:41;54.00;;;7.25;;
11092;SDS011;5600;50.864;6.102;2023-09-12T02:19:42;60.53;;;7.15;;
11092;SDS011;5600;50.864;6.102;2023-09-12T02:22:43;50.92;;;7.45;;
11092;SDS011;5600;50.864;6.102;2023-09-12T02:25:43;57.83;;;8.10;;
11092;SDS011;5600;50.864;6.102;2023-09-12T02:28:45;22.90;;;6.50;;
11092;SDS011;5600;50.864;6.102;2023-09-12T02:31:46;48.40;;;7.20;;
11092;SDS011;5600;50.864;6.102;2023-09-12T02:34:47;44.38;;;7.82;;
11092;SDS011;5600;50.864;6.102;2023-09-12T02:37:48;61.90;;;7.97;;
11092;SDS011;5600;50.864;6.102;2023-09-12T02:40:49;58.13;;;7.95;;
11092;SDS011;5600;50.864;6.102;2023-09-12T02:43:50;43.75;;;7.50;;
11092;SDS011;5600;50.864;6.102;2023-09-12T02:46:52;54.92;;;8.02;;
11092;SDS011;5600;50.864;6.102;2023-09-12T02:49:53;50.28;;;8.50;;
11092;SDS011;5600;50.864;6.102;2023-09-12T02:52:54;60.08;;;8.13;;
11092;SDS011;5600;50.864;6.102;2023-09-12T02:55:55;61.15;;;9.52;;
11092;SDS011;5600;50.864;6.102;2023-09-12T02:58:56;61.90;;;9.55;;
11092;SDS011;5600;50.864;6.102;2023-09-12T03:01:57;60.65;;;10.07;;
11092;SDS011;5600;50.864;6.102;2023-09-12T03:04:58;56.72;;;9.70;;
11092;SDS011;5600;50.864;6.102;2023-09-12T03:07:59;64.65;;;10.63;;
11092;SDS011;5600;50.864;6.102;2023-09-12T03:11:00;55.35;;;9.77;;
11092;SDS011;5600;50.864;6.102;2023-09-12T03:14:03;57.17;;;10.32;;
11092;SDS011;5600;50.864;6.102;2023-09-12T03:17:04;79.25;;;11.32;;
11092;SDS011;5600;50.864;6.102;2023-09-12T03:20:05;68.82;;;10.35;;
11092;SDS011;5600;50.864;6.102;2023-09-12T03:23:09;44.30;;;11.60;;
11092;SDS011;5600;50.864;6.102;2023-09-12T03:26:10;62.40;;;11.10;;
11092;SDS011;5600;50.864;6.102;2023-09-12T03:29:12;55.53;;;11.68;;
11092;SDS011;5600;50.864;6.102;2023-09-12T03:32:13;64.43;;;11.88;;
11092;SDS011;5600;50.864;6.102;2023-09-12T03:35:15;46.85;;;11.45;;
11092;SDS011;5600;50.864;6.102;2023-09-12T03:38:16;53.42;;;11.32;;
11092;SDS011;5600;50.864;6.102;2023-09-12T03:41:17;48.55;;;10.07;;
11092;SDS011;5600;50.864;6.102;2023-09-12T03:44:18;58.17;;;11.55;;
11092;SDS011;5600;50.864;6.102;2023-09-12T03:47:19;55.97;;;11.77;;
11092;SDS011;5600;50.864;6.102;2023-09-12T03:50:20;51.85;;;9.40;;
11092;SDS011;5600;50.864;6.102;2023-09-12T03:53:21;24.63;;;9.52;;
11092;SDS011;5600;50.864;6.102;2023-09-12T03:56:23;91.65;;;11.82;;
11092;SDS011;5600;50.864;6.102;2023-09-12T03:59:24;72.47;;;11.73;;
11092;SDS011;5600;50.864;6.102;2023-09-12T04:02:25;56.70;;;11.02;;
11092;SDS011;5600;50.864;6.102;2023-09-12T04:05:27;50.50;;;10.63;;
11092;SDS011;5600;50.864;6.102;2023-09-12T04:08:28;54.25;;;11.45;;
11092;SDS011;5600;50.864;6.102;2023-09-12T04:11:29;71.90;;;11.07;;
11092;SDS011;5600;50.864;6.102;2023-09-12T04:14:30;55.92;;;9.93;;
11092;SDS011;5600;50.864;6.102;2023-09-12T04:17:31;74.07;;;9.55;;
11092;SDS011;5600;50.864;6.102;2023-09-12T04:20:33;49.42;;;8.65;;
11092;SDS011;5600;50.864;6.102;2023-09-12T04:23:34;68.57;;;10.02;;
11092;SDS011;5600;50.864;6.102;2023-09-12T04:26:36;75.07;;;10.45;;
11092;SDS011;5600;50.864;6.102;2023-09-12T04:29:37;63.42;;;10.20;;
11092;SDS011;5600;50.864;6.102;2023-09-12T04:32:39;53.65;;;9.95;;
11092;SDS011;5600;50.864;6.102;2023-09-12T04:35:41;64.38;;;10.05;;
11092;SDS011;5600;50.864;6.102;2023-09-12T04:38:42;79.80;;;10.45;;
11092;SDS011;5600;50.864;6.102;2023-09-12T04:41:43;71.38;;;10.38;;
11092;SDS011;5600;50.864;6.102;2023-09-12T04:44:44;92.82;;;12.93;;
11092;SDS011;5600;50.864;6.102;2023-09-12T04:47:45;71.60;;;13.32;;
11092;SDS011;5600;50.864;6.102;2023-09-12T04:50:46;95.40;;;12.65;;
11092;SDS011;5600;50.864;6.102;2023-09-12T04:53:48;98.72;;;15.20;;
11092;SDS011;5600;50.864;6.102;2023-09-12T04:56:52;82.20;;;16.85;;
11092;SDS011;5600;50.864;6.102;2023-09-12T04:59:53;70.65;;;17.55;;
11092;SDS011;5600;50.864;6.102;2023-09-12T05:02:54;98.45;;;19.98;;
11092;SDS011;5600;50.864;6.102;2023-09-12T05:05:55;140.38;;;22.63;;
11092;SDS011;5600;50.864;6.102;2023-09-12T05:08:57;68.57;;;19.42;;
11092;SDS011;5600;50.864;6.102;2023-09-12T05:11:58;89.00;;;21.65;;
11092;SDS011;5600;50.864;6.102;2023-09-12T05:14:59;144.43;;;24.25;;
11092;SDS011;5600;50.864;6.102;2023-09-12T05:18:00;101.65;;;21.50;;
11092;SDS011;5600;50.864;6.102;2023-09-12T05:21:01;107.35;;;21.92;;
11092;SDS011;5600;50.864;6.102;2023-09-12T05:24:03;149.93;;;22.42;;
11092;SDS011;5600;50.864;6.102;2023-09-12T05:27:04;144.45;;;20.17;;
11092;SDS011;5600;50.864;6.102;2023-09-12T05:30:06;83.10;;;16.73;;
11092;SDS011;5600;50.864;6.102;2023-09-12T05:33:07;160.57;;;18.77;;
11092;SDS011;5600;50.864;6.102;2023-09-12T05:36:09;140.75;;;17.98;;
11092;SDS011;5600;50.864;6.102;2023-09-12T05:39:11;154.65;;;19.15;;
11092;SDS011;5600;50.864;6.102;2023-09-12T05:42:14;117.00;;;17.38;;
11092;SDS011;5600;50.864;6.102;2023-09-12T05:45:21;114.18;;;17.90;;
11092;SDS011;5600;50.864;6.102;2023-09-12T05:48:21;123.03;;;18.30;;
11092;SDS011;5600;50.864;6.102;2023-09-12T05:51:23;144.45;;;21.25;;
11092;SDS011;5600;50.864;6.102;2023-09-12T05:54:24;114.40;;;19.83;;
11092;SDS011;5600;50.864;6.102;2023-09-12T05:57:24;158.63;;;22.63;;
11092;SDS011;5600;50.864;6.102;2023-09-12T06:00:26;129.48;;;21.80;;
11092;SDS011;5600;50.864;6.102;2023-09-12T06:03:27;114.82;;;22.25;;
11092;SDS011;5600;50.864;6.102;2023-09-12T06:06:29;135.63;;;22.80;;
11092;SDS011;5600;50.864;6.102;2023-09-12T06:09:30;133.85;;;23.10;;
11092;SDS011;5600;50.864;6.102;2023-09-12T06:12:31;100.20;;;21.70;;
11092;SDS011;5600;50.864;6.102;2023-09-12T06:15:33;80.85;;;22.20;;
11092;SDS011;5600;50.864;6.102;2023-09-12T06:18:34;118.90;;;22.95;;
11092;SDS011;5600;50.864;6.102;2023-09-12T06:21:35;116.70;;;22.98;;
11092;SDS011;5600;50.864;6.102;2023-09-12T06:24:36;84.90;;;22.08;;
11092;SDS011;5600;50.864;6.102;2023-09-12T06:27:39;84.68;;;23.50;;
11092;SDS011;5600;50.864;6.102;2023-09-12T06:30:40;76.50;;;21.52;;
11092;SDS011;5600;50.864;6.102;2023-09-12T06:33:40;76.00;;;21.90;;
11092;SDS011;5600;50.864;6.102;2023-09-12T06:36:41;93.15;;;24.55;;
11092;SDS011;5600;50.864;6.102;2023-09-12T06:39:45;110.25;;;24.05;;
11092;SDS011;5600;50.864;6.102;2023-09-12T06:42:47;120.10;;;26.65;;
11092;SDS011;5600;50.864;6.102;2023-09-12T06:45:48;125.22;;;26.38;;
11092;SDS011;5600;50.864;6.102;2023-09-12T06:48:50;114.75;;;26.48;;
11092;SDS011;5600;50.864;6.102;2023-09-12T06:51:52;105.10;;;25.85;;
11092;SDS011;5600;50.864;6.102;2023-09-12T06:54:52;120.40;;;21.20;;
11092;SDS011;5600;50.864;6.102;2023-09-12T06:57:53;81.70;;;24.20;;
11092;SDS011;5600;50.864;6.102;2023-09-12T07:00:54;101.28;;;25.90;;
11092;SDS011;5600;50.864;6.102;2023-09-12T07:03:56;91.90;;;25.85;;
11092;SDS011;5600;50.864;6.102;2023-09-12T07:06:57;111.10;;;25.88;;
11092;SDS011;5600;50.864;6.102;2023-09-12T07:09:58;95.47;;;25.15;;
11092;SDS011;5600;50.864;6.102;2023-09-12T07:12:59;100.63;;;23.90;;
11092;SDS011;5600;50.864;6.102;2023-09-12T07:16:00;92.43;;;23.05;;
11092;SDS011;5600;50.864;6.102;2023-09-12T07:19:05;85.15;;;22.38;;
11092;SDS011;5600;50.864;6.102;2023-09-12T07:22:06;90.70;;;21.58;;
11092;SDS011;5600;50.864;6.102;2023-09-12T07:25:07;122.05;;;24.00;;
11092;SDS011;5600;50.864;6.102;2023-09-12T07:28:09;100.80;;;21.75;;
11092;SDS011;5600;50.864;6.102;2023-09-12T07:31:10;129.02;;;22.80;;
11092;SDS011;5600;50.864;6.102;2023-09-12T07:34:11;103.50;;;20.88;;
11092;SDS011;5600;50.864;6.102;2023-09-12T07:37:15;103.45;;;22.05;;
11092;SDS011;5600;50.864;6.102;2023-09-12T07:40:16;113.97;;;21.30;;
11092;SDS011;5600;50.864;6.102;2023-09-12T07:43:17;81.30;;;22.27;;
11092;SDS011;5600;50.864;6.102;2023-09-12T07:46:18;152.75;;;24.40;;
11092;SDS011;5600;50.864;6.102;2023-09-12T07:49:19;101.32;;;24.65;;
11092;SDS011;5600;50.864;6.102;2023-09-12T07:52:20;146.60;;;27.10;;
11092;SDS011;5600;50.864;6.102;2023-09-12T07:55:21;78.22;;;20.15;;
11092;SDS011;5600;50.864;6.102;2023-09-12T07:58:23;111.13;;;24.65;;
11092;SDS011;5600;50.864;6.102;2023-09-12T08:01:23;84.07;;;23.48;;
11092;SDS011;5600;50.864;6.102;2023-09-12T08:04:24;48.30;;;20.77;;
11092;SDS011;5600;50.864;6.102;2023-09-12T08:07:25;94.80;;;21.27;;
11092;SDS011;5600;50.864;6.102;2023-09-12T08:10:26;77.25;;;18.60;;
11092;SDS011;5600;50.864;6.102;2023-09-12T08:13:27;63.50;;;17.52;;
11092;SDS011;5600;50.864;6.102;2023-09-12T08:16:29;102.43;;;18.88;;
11092;SDS011;5600;50.864;6.102;2023-09-12T08:19:32;85.43;;;19.40;;
11092;SDS011;5600;50.864;6.102;2023-09-12T08:22:32;82.68;;;17.95;;
11092;SDS011;5600;50.864;6.102;2023-09-12T08:25:33;47.47;;;15.52;;
11092;SDS011;5600;50.864;6.102;2023-09-12T08:28:34;65.15;;;17.83;;
11092;SDS011;5600;50.864;6.102;2023-09-12T08:31:35;69.35;;;15.55;;
11092;SDS011;5600;50.864;6.102;2023-09-12T08:34:36;79.50;;;14.90;;
11092;SDS011;5600;50.864;6.102;2023-09-12T08:37:38;98.70;;;15.43;;
11092;SDS011;5600;50.864;6.102;2023-09-12T08:40:40;65.75;;;13.15;;
11092;SDS011;5600;50.864;6.102;2023-09-12T08:43:42;74.07;;;14.52;;
11092;SDS011;5600;50.864;6.102;2023-09-12T08:46:44;61.55;;;13.45;;
11092;SDS011;5600;50.864;6.102;2023-09-12T08:49:45;94.25;;;15.60;;
11092;SDS011;5600;50.864;6.102;2023-09-12T08:52:46;61.72;;;13.10;;
11092;SDS011;5600;50.864;6.102;2023-09-12T08:55:47;54.25;;;12.52;;
11092;SDS011;5600;50.864;6.102;2023-09-12T08:58:48;56.45;;;12.77;;
11092;SDS011;5600;50.864;6.102;2023-09-12T09:01:50;70.00;;;14.07;;
11092;SDS011;5600;50.864;6.102;2023-09-12T09:04:52;66.10;;;12.80;;
11092;SDS011;5600;50.864;6.102;2023-09-12T09:07:55;99.15;;;21.98;;
11092;SDS011;5600;50.864;6.102;2023-09-12T09:11:00;48.50;;;11.75;;
11092;SDS011;5600;50.864;6.102;2023-09-12T09:14:05;81.97;;;13.20;;
11092;SDS011;5600;50.864;6.102;2023-09-12T09:17:07;75.80;;;12.27;;
11092;SDS011;5600;50.864;6.102;2023-09-12T09:20:20;72.15;;;11.32;;
11092;SDS011;5600;50.864;6.102;2023-09-12T09:23:31;90.30;;;12.98;;
11092;SDS011;5600;50.864;6.102;2023-09-12T09:26:46;89.03;;;12.98;;
11092;SDS011;5600;50.864;6.102;2023-09-12T09:29:48;71.30;;;12.95;;
11092;SDS011;5600;50.864;6.102;2023-09-12T09:32:51;61.38;;;12.75;;
11092;SDS011;5600;50.864;6.102;2023-09-12T09:36:01;100.40;;;14.40;;
11092;SDS011;5600;50.864;6.102;2023-09-12T09:39:04;70.50;;;13.68;;
11092;SDS011;5600;50.864;6.102;2023-09-12T09:42:05;56.35;;;13.73;;
11092;SDS011;5600;50.864;6.102;2023-09-12T09:45:10;52.38;;;15.13;;
11092;SDS011;5600;50.864;6.102;2023-09-12T09:48:17;104.22;;;13.32;;
11092;SDS011;5600;50.864;6.102;2023-09-12T09:51:21;62.50;;;11.68;;
11092;SDS011;5600;50.864;6.102;2023-09-12T09:54:23;51.03;;;9.18;;
11092;SDS011;5600;50.864;6.102;2023-09-12T09:57:25;52.58;;;9.50;;
11092;SDS011;5600;50.864;6.102;2023-09-12T10:00:28;67.28;;;10.10;;
11092;SDS011;5600;50.864;6.102;2023-09-12T10:03:29;63.88;;;8.35;;
11092;SDS011;5600;50.864;6.102;2023-09-12T10:06:32;82.95;;;9.43;;
11092;SDS011;5600;50.864;6.102;2023-09-12T10:09:36;46.00;;;9.55;;
11092;SDS011;5600;50.864;6.102;2023-09-12T10:12:39;92.80;;;11.07;;
11092;SDS011;5600;50.864;6.102;2023-09-12T10:15:48;79.20;;;7.97;;
11092;SDS011;5600;50.864;6.102;2023-09-12T10:22:31;66.85;;;9.02;;
11092;SDS011;5600;50.864;6.102;2023-09-12T10:25:35;74.22;;;9.30;;
11092;SDS011;5600;50.864;6.102;2023-09-12T10:28:38;60.50;;;9.00;;
11092;SDS011;5600;50.864;6.102;2023-09-12T10:31:41;30.77;;;7.50;;
11092;SDS011;5600;50.864;6.102;2023-09-12T10:34:41;44.90;;;8.50;;
11092;SDS011;5600;50.864;6.102;2023-09-12T10:37:46;87.90;;;10.43;;
11092;SDS011;5600;50.864;6.102;2023-09-12T10:40:50;70.93;;;8.75;;
11092;SDS011;5600;50.864;6.102;2023-09-12T10:43:54;47.47;;;8.27;;
11092;SDS011;5600;50.864;6.102;2023-09-12T10:46:57;65.43;;;8.80;;
11092;SDS011;5600;50.864;6.102;2023-09-12T10:49:59;55.78;;;7.57;;
11092;SDS011;5600;50.864;6.102;2023-09-12T10:53:12;61.65;;;7.22;;
11092;SDS011;5600;50.864;6.102;2023-09-12T10:56:19;102.05;;;9.52;;
11092;SDS011;5600;50.864;6.102;2023-09-12T10:59:21;114.38;;;10.00;;
11092;SDS011;5600;50.864;6.102;2023-09-12T11:02:32;111.47;;;9.57;;
11092;SDS011;5600;50.864;6.102;2023-09-12T11:05:35;117.90;;;9.95;;
11092;SDS011;5600;50.864;6.102;2023-09-12T11:08:38;105.53;;;9.32;;
11092;SDS011;5600;50.864;6.102;2023-09-12T11:11:41;108.38;;;9.50;;
11092;SDS011;5600;50.864;6.102;2023-09-12T11:18:11;108.00;;;9.82;;
11092;SDS011;5600;50.864;6.102;2023-09-12T11:21:13;126.80;;;10.57;;
11092;SDS011;5600;50.864;6.102;2023-09-12T11:24:14;133.18;;;10.70;;
11092;SDS011;5600;50.864;6.102;2023-09-12T11:27:15;164.43;;;12.60;;
11092;SDS011;5600;50.864;6.102;2023-09-12T11:30:21;125.60;;;10.70;;
11092;SDS011;5600;50.864;6.102;2023-09-12T11:33:23;116.35;;;10.43;;
11092;SDS011;5600;50.864;6.102;2023-09-12T11:36:26;120.55;;;10.23;;
11092;SDS011;5600;50.864;6.102;2023-09-12T11:39:31;116.78;;;9.50;;
11092;SDS011;5600;50.864;6.102;2023-09-12T11:42:33;67.90;;;8.50;;
11092;SDS011;5600;50.864;6.102;2023-09-12T11:45:39;58.83;;;7.78;;
11092;SDS011;5600;50.864;6.102;2023-09-12T11:48:43;50.80;;;7.00;;
11092;SDS011;5600;50.864;6.102;2023-09-12T11:51:51;63.83;;;7.38;;
11092;SDS011;5600;50.864;6.102;2023-09-12T11:54:53;79.88;;;8.60;;
11092;SDS011;5600;50.864;6.102;2023-09-12T11:57:54;76.30;;;8.43;;
11092;SDS011;5600;50.864;6.102;2023-09-12T12:00:56;68.13;;;7.65;;
11092;SDS011;5600;50.864;6.102;2023-09-12T12:03:58;47.53;;;7.43;;
11092;SDS011;5600;50.864;6.102;2023-09-12T12:06:59;41.80;;;6.50;;
11092;SDS011;5600;50.864;6.102;2023-09-12T12:10:01;89.65;;;8.57;;
11092;SDS011;5600;50.864;6.102;2023-09-12T12:13:04;64.60;;;7.53;;
11092;SDS011;5600;50.864;6.102;2023-09-12T12:16:15;61.25;;;9.50;;
11092;SDS011;5600;50.864;6.102;2023-09-12T12:19:17;99.97;;;10.05;;
11092;SDS011;5600;50.864;6.102;2023-09-12T12:22:18;77.65;;;8.73;;
11092;SDS011;5600;50.864;6.102;2023-09-12T12:25:19;69.00;;;7.65;;
11092;SDS011;5600;50.864;6.102;2023-09-12T12:28:20;59.97;;;7.45;;
11092;SDS011;5600;50.864;6.102;2023-09-12T12:31:22;72.05;;;9.05;;
11092;SDS011;5600;50.864;6.102;2023-09-12T12:34:24;79.18;;;14.63;;
11092;SDS011;5600;50.864;6.102;2023-09-12T12:37:29;40.35;;;6.70;;
11092;SDS011;5600;50.864;6.102;2023-09-12T12:40:30;59.70;;;8.05;;
11092;SDS011;5600;50.864;6.102;2023-09-12T12:43:31;91.55;;;9.93;;
11092;SDS011;5600;50.864;6.102;2023-09-12T12:46:32;147.52;;;12.10;;
11092;SDS011;5600;50.864;6.102;2023-09-12T12:49:37;39.00;;;7.88;;
11092;SDS011;5600;50.864;6.102;2023-09-12T12:52:41;63.53;;;8.85;;
11092;SDS011;5600;50.864;6.102;2023-09-12T12:55:42;85.70;;;10.30;;
11092;SDS011;5600;50.864;6.102;2023-09-12T12:58:47;52.15;;;8.70;;
11092;SDS011;5600;50.864;6.102;2023-09-12T13:01:48;79.80;;;10.18;;
11092;SDS011;5600;50.864;6.102;2023-09-12T13:04:50;70.20;;;9.85;;
11092;SDS011;5600;50.864;6.102;2023-09-12T13:07:51;79.13;;;9.85;;
11092;SDS011;5600;50.864;6.102;2023-09-12T13:10:52;72.53;;;9.43;;
11092;SDS011;5600;50.864;6.102;2023-09-12T13:13:53;86.75;;;10.63;;
11092;SDS011;5600;50.864;6.102;2023-09-12T13:16:53;79.72;;;10.27;;
11092;SDS011;5600;50.864;6.102;2023-09-12T13:19:55;84.38;;;10.57;;
11092;SDS011;5600;50.864;6.102;2023-09-12T13:22:56;71.55;;;9.13;;
11092;SDS011;5600;50.864;6.102;2023-09-12T13:25:57;96.93;;;9.63;;
11092;SDS011;5600;50.864;6.102;2023-09-12T13:28:58;72.03;;;8.60;;
11092;SDS011;5600;50.864;6.102;2023-09-12T13:31:59;68.13;;;8.75;;
11092;SDS011;5600;50.864;6.102;2023-09-12T13:35:00;51.28;;;8.30;;
11092;SDS011;5600;50.864;6.102;2023-09-12T13:38:01;70.88;;;9.85;;
11092;SDS011;5600;50.864;6.102;2023-09-12T13:41:04;72.38;;;9.60;;
11092;SDS011;5600;50.864;6.102;2023-09-12T13:44:04;55.22;;;8.50;;
11092;SDS011;5600;50.864;6.102;2023-09-12T13:47:05;71.57;;;9.35;;
11092;SDS011;5600;50.864;6.102;2023-09-12T13:50:06;94.85;;;10.05;;
11092;SDS011;5600;50.864;6.102;2023-09-12T13:53:08;64.65;;;8.93;;
11092;SDS011;5600;50.864;6.102;2023-09-12T13:56:09;78.38;;;9.82;;
11092;SDS011;5600;50.864;6.102;2023-09-12T13:59:10;87.18;;;9.65;;
11092;SDS011;5600;50.864;6.102;2023-09-12T14:02:11;134.70;;;10.88;;
11092;SDS011;5600;50.864;6.102;2023-09-12T14:05:12;83.85;;;8.48;;
11092;SDS011;5600;50.864;6.102;2023-09-12T14:08:13;72.78;;;8.00;;
11092;SDS011;5600;50.864;6.102;2023-09-12T14:11:14;110.22;;;9.32;;
11092;SDS011;5600;50.864;6.102;2023-09-12T14:14:15;177.75;;;12.27;;
11092;SDS011;5600;50.864;6.102;2023-09-12T14:17:19;109.63;;;9.32;;
11092;SDS011;5600;50.864;6.102;2023-09-12T14:20:21;80.80;;;8.48;;
11092;SDS011;5600;50.864;6.102;2023-09-12T14:23:22;75.50;;;8.13;;
11092;SDS011;5600;50.864;6.102;2023-09-12T14:26:23;144.60;;;10.98;;
11092;SDS011;5600;50.864;6.102;2023-09-12T14:29:24;96.43;;;9.32;;
11092;SDS011;5600;50.864;6.102;2023-09-12T14:32:28;98.75;;;9.48;;
11092;SDS011;5600;50.864;6.102;2023-09-12T14:35:29;80.55;;;8.80;;
11092;SDS011;5600;50.864;6.102;2023-09-12T14:38:30;86.18;;;9.13;;
11092;SDS011;5600;50.864;6.102;2023-09-12T14:41:31;66.60;;;7.97;;
11092;SDS011;5600;50.864;6.102;2023-09-12T14:44:33;71.68;;;7.72;;
11092;SDS011;5600;50.864;6.102;2023-09-12T14:47:34;76.45;;;8.70;;
11092;SDS011;5600;50.864;6.102;2023-09-12T14:50:35;99.38;;;9.75;;
11092;SDS011;5600;50.864;6.102;2023-09-12T14:53:36;96.63;;;9.27;;
11092;SDS011;5600;50.864;6.102;2023-09-12T14:56:39;59.20;;;7.28;;
11092;SDS011;5600;50.864;6.102;2023-09-12T14:59:42;85.80;;;9.10;;
11092;SDS011;5600;50.864;6.102;2023-09-12T15:02:43;80.43;;;8.27;;
11092;SDS011;5600;50.864;6.102;2023-09-12T15:05:44;85.85;;;9.05;;
11092;SDS011;5600;50.864;6.102;2023-09-12T15:08:45;64.78;;;8.45;;
11092;SDS011;5600;50.864;6.102;2023-09-12T15:11:46;85.10;;;9.63;;
11092;SDS011;5600;50.864;6.102;2023-09-12T15:14:47;65.82;;;8.80;;
11092;SDS011;5600;50.864;6.102;2023-09-12T15:17:49;62.25;;;9.02;;
11092;SDS011;5600;50.864;6.102;2023-09-12T15:20:51;49.70;;;7.00;;
11092;SDS011;5600;50.864;6.102;2023-09-12T15:23:53;62.08;;;8.13;;
11092;SDS011;5600;50.864;6.102;2023-09-12T15:26:54;66.18;;;8.68;;
11092;SDS011;5600;50.864;6.102;2023-09-12T15:29:55;61.63;;;8.32;;
11092;SDS011;5600;50.864;6.102;2023-09-12T15:32:56;109.32;;;11.10;;
11092;SDS011;5600;50.864;6.102;2023-09-12T15:35:57;100.78;;;9.35;;
11092;SDS011;5600;50.864;6.102;2023-09-12T15:38:58;68.07;;;8.32;;
11092;SDS011;5600;50.864;6.102;2023-09-12T15:42:00;92.28;;;9.88;;
11092;SDS011;5600;50.864;6.102;2023-09-12T15:45:01;57.05;;;7.47;;
11092;SDS011;5600;50.864;6.102;2023-09-12T15:48:05;54.40;;;8.82;;
11092;SDS011;5600;50.864;6.102;2023-09-12T15:51:06;84.75;;;9.23;;
11092;SDS011;5600;50.864;6.102;2023-09-12T15:54:07;74.25;;;8.85;;
11092;SDS011;5600;50.864;6.102;2023-09-12T15:57:08;73.65;;;9.30;;
11092;SDS011;5600;50.864;6.102;2023-09-12T16:00:09;61.78;;;8.05;;
11092;SDS011;5600;50.864;6.102;2023-09-12T16:03:13;62.58;;;8.43;;
11092;SDS011;5600;50.864;6.102;2023-09-12T16:06:15;149.77;;;12.43;;
11092;SDS011;5600;50.864;6.102;2023-09-12T16:09:16;62.95;;;7.53;;
11092;SDS011;5600;50.864;6.102;2023-09-12T16:12:17;53.67;;;9.05;;
11092;SDS011;5600;50.864;6.102;2023-09-12T16:15:18;75.45;;;9.43;;
11092;SDS011;5600;50.864;6.102;2023-09-12T16:18:19;64.13;;;9.00;;
11092;SDS011;5600;50.864;6.102;2023-09-12T16:21:20;75.18;;;9.30;;
11092;SDS011;5600;50.864;6.102;2023-09-12T16:24:23;52.00;;;7.85;;
11092;SDS011;5600;50.864;6.102;2023-09-12T16:27:24;52.80;;;8.20;;
11092;SDS011;5600;50.864;6.102;2023-09-12T16:30:25;89.38;;;9.88;;
11092;SDS011;5600;50.864;6.102;2023-09-12T16:33:26;61.85;;;8.77;;
11092;SDS011;5600;50.864;6.102;2023-09-12T16:36:27;123.75;;;10.88;;
11092;SDS011;5600;50.864;6.102;2023-09-12T16:39:28;60.75;;;8.88;;
11092;SDS011;5600;50.864;6.102;2023-09-12T16:42:29;63.08;;;8.73;;
11092;SDS011;5600;50.864;6.102;2023-09-12T16:45:31;78.82;;;9.85;;
11092;SDS011;5600;50.864;6.102;2023-09-12T16:48:32;110.03;;;12.63;;
11092;SDS011;5600;50.864;6.102;2023-09-12T16:51:35;65.22;;;9.90;;
11092;SDS011;5600;50.864;6.102;2023-09-12T16:54:36;58.33;;;9.93;;
11092;SDS011;5600;50.864;6.102;2023-09-12T16:57:37;63.90;;;10.05;;
11092;SDS011;5600;50.864;6.102;2023-09-12T17:00:38;77.65;;;11.80;;
11092;SDS011;5600;50.864;6.102;2023-09-12T17:03:43;53.72;;;11.25;;
11092;SDS011;5600;50.864;6.102;2023-09-12T17:06:44;61.28;;;10.75;;
11092;SDS011;5600;50.864;6.102;2023-09-12T17:09:45;114.90;;;14.02;;
11092;SDS011;5600;50.864;6.102;2023-09-12T17:12:46;56.40;;;11.65;;
11092;SDS011;5600;50.864;6.102;2023-09-12T17:15:48;69.13;;;13.10;;
11092;SDS011;5600;50.864;6.102;2023-09-12T17:18:49;68.72;;;13.55;;
11092;SDS011;5600;50.864;6.102;2023-09-12T17:21:50;72.95;;;14.85;;
11092;SDS011;5600;50.864;6.102;2023-09-12T17:24:51;61.95;;;13.80;;
11092;SDS011;5600;50.864;6.102;2023-09-12T17:27:52;72.03;;;14.02;;
11092;SDS011;5600;50.864;6.102;2023-09-12T17:30:52;78.82;;;14.88;;
11092;SDS011;5600;50.864;6.102;2023-09-12T17:33:53;71.60;;;15.30;;
11092;SDS011;5600;50.864;6.102;2023-09-12T17:36:54;104.55;;;15.95;;
11092;SDS011;5600;50.864;6.102;2023-09-12T17:39:55;85.65;;;18.48;;
11092;SDS011;5600;50.864;6.102;2023-09-12T17:42:58;55.13;;;18.85;;
11092;SDS011;5600;50.864;6.102;2023-09-12T17:45:59;72.20;;;19.05;;
11092;SDS011;5600;50.864;6.102;2023-09-12T17:49:00;70.20;;;18.92;;
11092;SDS011;5600;50.864;6.102;2023-09-12T17:52:01;58.50;;;13.25;;
11092;SDS011;5600;50.864;6.102;2023-09-12T17:55:02;67.60;;;10.00;;
11092;SDS011;5600;50.864;6.102;2023-09-12T17:58:03;55.05;;;6.18;;
11092;SDS011;5600;50.864;6.102;2023-09-12T18:01:04;67.00;;;5.38;;
11092;SDS011;5600;50.864;6.102;2023-09-12T18:04:05;39.85;;;3.92;;
11092;SDS011;5600;50.864;6.102;2023-09-12T18:07:05;49.53;;;3.95;;
11092;SDS011;5600;50.864;6.102;2023-09-12T18:10:07;50.30;;;3.75;;
11092;SDS011;5600;50.864;6.102;2023-09-12T18:13:08;70.05;;;4.32;;
11092;SDS011;5600;50.864;6.102;2023-09-12T18:16:09;61.08;;;4.35;;
11092;SDS011;5600;50.864;6.102;2023-09-12T18:19:13;49.22;;;3.60;;